createdAt,value
2022-07-30T00:02:11.019Z,21.23
2022-07-30T00:04:39.083Z,21.25
2022-07-30T00:07:08.568Z,21.19
2022-07-30T00:09:36.562Z,21.19
2022-07-30T00:12:05.371Z,21.17
2022-07-30T00:14:34.967Z,21.15
2022-07-30T00:17:03.892Z,21.12
2022-07-30T00:19:32.339Z,21.12
2022-07-30T00:22:00.528Z,21.09
2022-07-30T00:24:29.913Z,21.07
2022-07-30T00:26:57.956Z,21.08
2022-07-30T00:29:26.711Z,21.04
2022-07-30T00:31:56.584Z,20.98
2022-07-30T00:34:24.555Z,20.97
2022-07-30T00:36:52.943Z,20.95
2022-07-30T00:39:20.922Z,20.93
2022-07-30T00:41:58.580Z,20.93
2022-07-30T00:44:26.960Z,20.90
2022-07-30T00:46:55.168Z,20.94
2022-07-30T00:49:24.042Z,20.94
2022-07-30T00:51:52.192Z,20.93
2022-07-30T00:54:21.249Z,20.90
2022-07-30T00:56:49.803Z,20.87
2022-07-30T00:59:19.204Z,20.86
2022-07-30T01:01:47.234Z,20.83
2022-07-30T01:04:15.246Z,20.80
2022-07-30T01:06:43.194Z,20.80
2022-07-30T01:09:11.172Z,20.79
2022-07-30T01:11:40.617Z,20.79
2022-07-30T01:14:10.701Z,20.77
2022-07-30T01:16:42.865Z,20.74
2022-07-30T01:19:33.946Z,20.45
2022-07-30T01:22:08.591Z,20.30
2022-07-30T01:24:40.255Z,20.42
2022-07-30T01:27:13.590Z,20.50
2022-07-30T01:29:45.751Z,20.53
2022-07-30T01:32:15.737Z,20.52
2022-07-30T01:34:45.691Z,20.54
2022-07-30T01:37:16.577Z,20.58
2022-07-30T01:39:45.212Z,20.56
2022-07-30T01:42:14.864Z,20.51
2022-07-30T01:44:44.532Z,20.47
2022-07-30T01:47:14.446Z,20.38
2022-07-30T01:49:44.573Z,20.36
2022-07-30T01:52:13.520Z,20.33
2022-07-30T01:54:43.735Z,20.27
2022-07-30T01:57:11.831Z,20.27
2022-07-30T01:59:41.895Z,20.25
2022-07-30T02:02:09.905Z,20.26
2022-07-30T02:04:38.065Z,20.25
2022-07-30T02:07:11.686Z,20.18
2022-07-30T02:09:49.276Z,20.14
2022-07-30T02:12:31.597Z,20.09
2022-07-30T02:15:15.644Z,20.05
2022-07-30T02:17:46.868Z,20.05
2022-07-30T02:20:17.830Z,20.01
2022-07-30T02:22:48.113Z,20.03
2022-07-30T02:25:20.157Z,20.05
2022-07-30T02:27:54.237Z,20.05
2022-07-30T02:30:28.816Z,20.02
2022-07-30T02:33:03.053Z,19.89
2022-07-30T02:35:32.652Z,19.86
2022-07-30T02:38:03.096Z,19.87
2022-07-30T02:40:32.219Z,19.81
2022-07-30T02:43:02.350Z,19.83
2022-07-30T02:45:32.631Z,19.72
2022-07-30T02:48:06.695Z,19.65
2022-07-30T02:50:36.148Z,19.65
2022-07-30T02:53:08.337Z,19.68
2022-07-30T02:55:39.399Z,19.72
2022-07-30T02:58:08.555Z,19.68
2022-07-30T03:00:39.944Z,19.35
2022-07-30T03:03:09.933Z,19.08
2022-07-30T03:05:40.802Z,19.20
2022-07-30T03:08:09.927Z,19.41
2022-07-30T03:10:38.803Z,19.48
2022-07-30T03:13:08.396Z,19.57
2022-07-30T03:15:43.410Z,19.58
2022-07-30T03:18:13.236Z,19.53
2022-07-30T03:20:45.636Z,19.54
2022-07-30T03:23:16.168Z,19.53
2022-07-30T03:25:47.442Z,19.19
2022-07-30T03:28:16.943Z,18.79
2022-07-30T03:30:46.473Z,18.80
2022-07-30T03:33:15.844Z,19.03
2022-07-30T03:35:44.797Z,19.15
2022-07-30T03:38:14.039Z,19.28
2022-07-30T03:40:42.816Z,19.33
2022-07-30T03:43:32.316Z,19.39
2022-07-30T03:46:03.861Z,19.39
2022-07-30T03:48:35.609Z,19.42
2022-07-30T03:51:04.897Z,19.46
2022-07-30T03:53:33.316Z,19.52
2022-07-30T03:56:20.158Z,19.48
2022-07-30T03:59:00.697Z,19.44
2022-07-30T04:01:31.040Z,19.43
2022-07-30T04:04:08.538Z,19.46
2022-07-30T04:06:39.791Z,19.41
2022-07-30T04:09:09.006Z,19.39
2022-07-30T04:11:41.091Z,19.18
2022-07-30T04:14:13.022Z,19.18
2022-07-30T04:16:49.112Z,19.25
2022-07-30T04:19:24.477Z,19.26
2022-07-30T04:21:56.699Z,19.23
2022-07-30T04:24:28.248Z,19.24
2022-07-30T04:27:00.650Z,19.16
2022-07-30T04:29:28.905Z,19.06
2022-07-30T04:31:59.171Z,19.02
2022-07-30T04:34:59.435Z,18.91
2022-07-30T04:38:00.284Z,18.89
2022-07-30T04:40:30.227Z,19.05
2022-07-30T04:42:58.519Z,19.07
2022-07-30T04:45:26.730Z,19.06
2022-07-30T04:47:59.427Z,19.08
2022-07-30T04:50:30.071Z,19.15
2022-07-30T04:52:59.847Z,19.20
2022-07-30T04:55:31.660Z,19.14
2022-07-30T04:58:01.937Z,19.20
2022-07-30T05:00:40.447Z,19.23
2022-07-30T05:03:14.949Z,19.24
2022-07-30T05:05:51.117Z,19.25
2022-07-30T05:08:21.142Z,19.26
2022-07-30T05:10:50.626Z,19.29
2022-07-30T05:13:22.463Z,19.33
2022-07-30T05:15:55.829Z,19.31
2022-07-30T05:18:28.325Z,19.33
2022-07-30T05:20:56.307Z,19.31
2022-07-30T05:23:29.552Z,19.35
2022-07-30T05:26:05.770Z,19.31
2022-07-30T05:28:41.625Z,19.29
2022-07-30T05:31:14.361Z,19.23
2022-07-30T05:33:51.212Z,19.22
2022-07-30T05:36:20.584Z,19.26
2022-07-30T05:38:49.343Z,19.31
2022-07-30T05:41:35.893Z,19.35
2022-07-30T05:44:10.930Z,19.36
2022-07-30T05:46:39.459Z,19.44
2022-07-30T05:49:09.404Z,19.46
2022-07-30T05:51:37.482Z,19.54
2022-07-30T05:54:05.795Z,19.63
2022-07-30T05:56:56.545Z,19.69
2022-07-30T05:59:32.762Z,19.72
2022-07-30T06:02:09.517Z,19.76
2022-07-30T06:04:59.460Z,19.83
2022-07-30T06:07:28.265Z,19.89
2022-07-30T06:10:00.363Z,19.89
2022-07-30T06:12:29.638Z,19.93
2022-07-30T06:14:58.469Z,19.93
2022-07-30T06:17:43.791Z,19.90
2022-07-30T06:20:27.817Z,19.89
2022-07-30T06:23:10.687Z,19.88
2022-07-30T06:25:56.027Z,19.93
2022-07-30T06:28:39.806Z,20.01
2022-07-30T06:31:46.079Z,20.16
2022-07-30T06:34:14.113Z,20.27
2022-07-30T06:36:45.397Z,20.34
2022-07-30T06:39:53.576Z,20.38
2022-07-30T06:42:28.722Z,20.38
2022-07-30T06:45:19.423Z,20.60
2022-07-30T06:48:06.442Z,20.66
2022-07-30T06:50:34.544Z,20.72
2022-07-30T06:53:04.238Z,20.76
2022-07-30T06:55:58.267Z,20.81
2022-07-30T06:58:33.020Z,20.78
2022-07-30T07:01:21.065Z,20.61
2022-07-30T07:03:49.135Z,20.51
2022-07-30T07:06:17.295Z,20.34
2022-07-30T07:08:46.766Z,20.46
2022-07-30T07:11:18.825Z,20.36
2022-07-30T07:13:54.699Z,20.44
2022-07-30T07:16:32.641Z,20.60
2022-07-30T07:19:08.225Z,20.68
2022-07-30T07:21:36.264Z,20.93
2022-07-30T07:24:08.882Z,21.20
2022-07-30T07:26:54.380Z,21.20
2022-07-30T07:29:22.642Z,21.18
2022-07-30T07:32:06.838Z,21.38
2022-07-30T07:34:36.982Z,21.54
2022-07-30T07:37:05.144Z,21.26
2022-07-30T07:39:34.449Z,21.36
2022-07-30T07:42:02.635Z,21.49
2022-07-30T07:44:31.862Z,21.59
2022-07-30T07:47:00.154Z,21.72
2022-07-30T07:49:33.480Z,21.76
2022-07-30T07:52:02.809Z,22.05
2022-07-30T07:54:30.773Z,22.31
2022-07-30T07:57:02.326Z,22.47
2022-07-30T07:59:40.718Z,22.44
2022-07-30T08:02:24.644Z,22.66
2022-07-30T08:05:10.591Z,22.92
2022-07-30T08:08:00.725Z,23.05
2022-07-30T08:10:41.056Z,23.20
2022-07-30T08:13:48.145Z,23.35
2022-07-30T08:16:36.005Z,23.47
2022-07-30T08:19:35.827Z,23.63
2022-07-30T08:22:18.305Z,23.59
2022-07-30T08:24:46.370Z,23.65
2022-07-30T08:27:14.344Z,23.69
2022-07-30T08:29:44.969Z,23.78
2022-07-30T08:32:13.020Z,23.90
2022-07-30T08:34:42.154Z,23.94
2022-07-30T08:37:10.292Z,23.92
2022-07-30T08:39:42.639Z,24.01
2022-07-30T08:42:11.112Z,24.09
2022-07-30T08:44:39.902Z,24.19
2022-07-30T08:47:12.154Z,24.25
2022-07-30T08:50:19.487Z,24.32
2022-07-30T08:53:14.283Z,24.42
2022-07-30T08:55:42.704Z,24.53
2022-07-30T08:58:23.276Z,24.59
2022-07-30T09:00:51.428Z,24.61
2022-07-30T09:03:22.556Z,24.67
2022-07-30T09:05:51.126Z,24.66
2022-07-30T09:08:19.987Z,24.58
2022-07-30T09:10:52.901Z,24.64
2022-07-30T09:13:26.596Z,24.75
2022-07-30T09:15:55.854Z,24.84
2022-07-30T09:18:31.443Z,24.84
2022-07-30T09:21:00.910Z,24.93
2022-07-30T09:23:29.509Z,24.94
2022-07-30T09:26:26.756Z,25.04
2022-07-30T09:29:17.220Z,25.12
2022-07-30T09:32:06.489Z,25.08
2022-07-30T09:34:56.206Z,25.03
2022-07-30T09:38:04.567Z,24.95
2022-07-30T09:40:57.579Z,24.97
2022-07-30T09:43:46.048Z,25.03
2022-07-30T09:46:21.974Z,25.16
2022-07-30T09:48:51.690Z,25.00
2022-07-30T09:51:54.626Z,24.88
2022-07-30T09:54:26.722Z,25.19
2022-07-30T09:57:22.627Z,25.10
2022-07-30T09:59:57.491Z,25.28
2022-07-30T10:02:33.462Z,25.43
2022-07-30T10:05:15.472Z,25.47
2022-07-30T10:07:54.553Z,25.59
2022-07-30T10:10:25.769Z,25.63
2022-07-30T10:12:59.082Z,25.66
2022-07-30T10:15:32.474Z,25.62
2022-07-30T10:18:02.039Z,25.51
2022-07-30T10:20:49.780Z,25.64
2022-07-30T10:23:53.904Z,25.70
2022-07-30T10:26:40.946Z,25.79
2022-07-30T10:29:33.826Z,25.89
2022-07-30T10:32:03.197Z,25.96
2022-07-30T10:34:34.410Z,25.94
2022-07-30T10:37:07.478Z,25.68
2022-07-30T10:39:40.534Z,25.80
2022-07-30T10:42:25.808Z,25.93
2022-07-30T10:45:17.437Z,26.04
2022-07-30T10:47:49.356Z,26.21
2022-07-30T10:50:22.265Z,26.24
2022-07-30T10:52:53.488Z,26.26
2022-07-30T10:55:37.332Z,26.34
2022-07-30T10:58:09.303Z,26.35
2022-07-30T11:01:00.666Z,26.34
2022-07-30T11:03:41.218Z,26.50
2022-07-30T11:06:27.981Z,26.55
2022-07-30T11:08:56.943Z,26.49
2022-07-30T11:12:16.123Z,26.50
2022-07-30T11:15:06.145Z,26.52
2022-07-30T11:18:05.108Z,26.68
2022-07-30T11:20:47.685Z,26.50
2022-07-30T11:23:40.680Z,26.74
2022-07-30T11:26:14.190Z,26.91
2022-07-30T11:28:49.234Z,26.89
2022-07-30T11:31:30.627Z,26.93
2022-07-30T11:34:30.972Z,26.79
2022-07-30T11:37:19.226Z,26.89
2022-07-30T11:40:11.115Z,26.98
2022-07-30T11:42:42.150Z,27.12
2022-07-30T11:45:30.278Z,27.15
2022-07-30T11:48:01.299Z,27.12
2022-07-30T11:50:32.201Z,26.95
2022-07-30T11:53:01.943Z,26.87
2022-07-30T11:55:32.823Z,26.89
2022-07-30T11:58:02.461Z,26.96
2022-07-30T12:00:38.078Z,26.98
2022-07-30T12:03:13.792Z,27.05
2022-07-30T12:05:42.140Z,27.19
2022-07-30T12:08:35.429Z,27.27
2022-07-30T12:11:01.130Z,27.28
2022-07-30T12:13:43.927Z,27.38
2022-07-30T12:16:17.602Z,27.37
2022-07-30T12:18:46.621Z,27.50
2022-07-30T12:21:16.175Z,27.49
2022-07-30T12:23:44.875Z,27.33
2022-07-30T12:26:22.457Z,27.40
2022-07-30T12:28:50.977Z,27.31
2022-07-30T12:31:20.523Z,27.36
2022-07-30T12:33:48.646Z,27.42
2022-07-30T12:36:26.581Z,27.45
2022-07-30T12:38:54.775Z,27.36
2022-07-30T12:41:23.199Z,27.47
2022-07-30T12:43:53.169Z,27.68
2022-07-30T12:46:24.484Z,27.72
2022-07-30T12:48:54.715Z,27.91
2022-07-30T12:51:24.749Z,27.88
2022-07-30T12:53:55.454Z,27.96
2022-07-30T12:56:24.901Z,28.06
2022-07-30T12:58:54.034Z,28.07
2022-07-30T13:01:44.746Z,28.03
2022-07-30T13:04:14.590Z,27.86
2022-07-30T13:06:43.550Z,27.82
2022-07-30T13:09:20.339Z,28.06
2022-07-30T13:11:51.296Z,28.05
2022-07-30T13:14:19.378Z,28.12
2022-07-30T13:16:55.646Z,28.04
2022-07-30T13:19:23.843Z,28.04
2022-07-30T13:21:52.023Z,28.33
2022-07-30T13:24:20.393Z,28.24
2022-07-30T13:27:01.316Z,28.22
2022-07-30T13:29:29.381Z,28.52
2022-07-30T13:31:58.803Z,28.24
2022-07-30T13:34:26.862Z,28.22
2022-07-30T13:36:54.901Z,28.30
2022-07-30T13:39:22.857Z,28.47
2022-07-30T13:41:50.878Z,28.67
2022-07-30T13:44:18.887Z,28.80
2022-07-30T13:46:47.460Z,28.68
2022-07-30T13:49:16.841Z,28.87
2022-07-30T13:51:45.299Z,29.10
2022-07-30T13:54:14.008Z,29.29
2022-07-30T13:56:42.118Z,29.25
2022-07-30T13:59:10.948Z,29.22
2022-07-30T14:01:39.381Z,29.19
2022-07-30T14:04:08.422Z,29.08
2022-07-30T14:06:37.819Z,29.00
2022-07-30T14:09:06.124Z,29.05
2022-07-30T14:11:34.134Z,29.31
2022-07-30T14:14:02.104Z,29.25
2022-07-30T14:16:44.709Z,29.21
2022-07-30T14:19:23.550Z,29.28
2022-07-30T14:21:54.320Z,29.64
2022-07-30T14:24:23.463Z,29.47
2022-07-30T14:26:57.339Z,29.56
2022-07-30T14:29:26.505Z,29.48
2022-07-30T14:31:55.073Z,29.20
2022-07-30T14:34:23.077Z,29.31
2022-07-30T14:36:51.141Z,29.45
2022-07-30T14:39:20.958Z,29.47
2022-07-30T14:41:54.062Z,29.49
2022-07-30T14:44:24.423Z,29.62
2022-07-30T14:46:53.020Z,29.58
2022-07-30T14:49:21.697Z,29.61
2022-07-30T14:51:51.150Z,29.40
2022-07-30T14:54:20.873Z,29.49
2022-07-30T14:56:49.248Z,29.59
2022-07-30T14:59:18.069Z,29.62
2022-07-30T15:01:48.214Z,29.83
2022-07-30T15:04:16.890Z,29.48
2022-07-30T15:06:45.228Z,29.44
2022-07-30T15:09:13.846Z,29.60
2022-07-30T15:12:07.608Z,29.86
2022-07-30T15:14:31.706Z,30.04
2022-07-30T15:17:04.269Z,29.77
2022-07-30T15:19:33.287Z,29.84
2022-07-30T15:22:03.530Z,29.91
2022-07-30T15:24:32.291Z,29.65
2022-07-30T15:27:02.053Z,29.55
2022-07-30T15:29:31.045Z,29.59
2022-07-30T15:32:01.211Z,29.71
2022-07-30T15:34:34.655Z,29.84
2022-07-30T15:37:03.563Z,30.00
2022-07-30T15:39:34.399Z,30.06
2022-07-30T15:42:06.572Z,30.29
2022-07-30T15:44:35.346Z,30.16
2022-07-30T15:47:03.537Z,30.15
2022-07-30T15:49:32.519Z,30.07
2022-07-30T15:52:01.736Z,30.09
2022-07-30T15:54:30.370Z,30.38
2022-07-30T15:57:01.052Z,30.43
2022-07-30T15:59:31.953Z,30.34
2022-07-30T16:02:00.740Z,30.11
2022-07-30T16:04:31.981Z,30.11
2022-07-30T16:07:00.851Z,30.29
2022-07-30T16:09:28.942Z,30.29
2022-07-30T16:11:57.109Z,30.24
2022-07-30T16:14:26.359Z,30.18
2022-07-30T16:16:56.201Z,30.18
2022-07-30T16:19:24.533Z,30.27
2022-07-30T16:21:53.264Z,30.19
2022-07-30T16:24:21.724Z,30.29
2022-07-30T16:26:50.733Z,30.57
2022-07-30T16:29:19.028Z,30.83
2022-07-30T16:31:47.432Z,30.42
2022-07-30T16:34:17.187Z,30.43
2022-07-30T16:36:54.689Z,30.49
2022-07-30T16:39:23.221Z,30.58
2022-07-30T16:41:51.293Z,30.71
2022-07-30T16:44:19.223Z,30.54
2022-07-30T16:46:48.116Z,30.10
2022-07-30T16:49:17.782Z,30.13
2022-07-30T16:51:45.794Z,30.46
2022-07-30T16:54:13.839Z,30.55
2022-07-30T16:56:42.581Z,30.49
2022-07-30T16:59:13.776Z,30.73
2022-07-30T17:01:42.095Z,30.64
2022-07-30T17:04:10.082Z,30.55
2022-07-30T17:06:40.139Z,30.60
2022-07-30T17:09:08.377Z,30.70
2022-07-30T17:11:47.337Z,30.87
2022-07-30T17:14:22.216Z,30.62
2022-07-30T17:16:50.553Z,30.31
2022-07-30T17:19:18.550Z,30.42
2022-07-30T17:21:47.904Z,30.39
2022-07-30T17:24:15.948Z,30.34
2022-07-30T17:26:44.861Z,30.32
2022-07-30T17:29:15.269Z,30.40
2022-07-30T17:31:44.577Z,30.38
2022-07-30T17:34:14.300Z,30.32
2022-07-30T17:36:44.353Z,30.33
2022-07-30T17:40:18.701Z,30.56
2022-07-30T17:42:10.445Z,30.74
2022-07-30T17:44:39.322Z,30.48
2022-07-30T17:47:12.360Z,30.47
2022-07-30T17:49:42.748Z,30.58
2022-07-30T17:52:10.676Z,30.77
2022-07-30T17:54:40.476Z,30.91
2022-07-30T17:57:08.492Z,31.03
2022-07-30T17:59:36.511Z,30.60
2022-07-30T18:02:05.209Z,30.28
2022-07-30T18:04:34.240Z,29.81
2022-07-30T18:07:02.280Z,29.53
2022-07-30T18:09:38.086Z,29.56
2022-07-30T18:12:09.958Z,29.79
2022-07-30T18:14:38.682Z,29.72
2022-07-30T18:17:09.087Z,29.60
2022-07-30T18:19:39.233Z,29.74
2022-07-30T18:22:09.028Z,29.77
2022-07-30T18:24:40.525Z,29.72
2022-07-30T18:27:13.359Z,29.62
2022-07-30T18:29:41.365Z,29.63
2022-07-30T18:32:09.579Z,29.63
2022-07-30T18:34:37.560Z,29.60
2022-07-30T18:37:05.705Z,29.52
2022-07-30T18:39:33.664Z,29.32
2022-07-30T18:42:02.420Z,29.13
2022-07-30T18:44:32.423Z,29.09
2022-07-30T18:47:00.417Z,28.90
2022-07-30T18:49:37.564Z,28.59
2022-07-30T18:52:07.846Z,28.33
2022-07-30T18:54:36.881Z,28.01
2022-07-30T18:57:05.368Z,27.85
2022-07-30T18:59:35.003Z,27.73
2022-07-30T19:02:04.806Z,27.61
2022-07-30T19:04:33.079Z,27.52
2022-07-30T19:07:01.027Z,27.50
2022-07-30T19:09:28.994Z,27.38
2022-07-30T19:11:56.959Z,27.27
2022-07-30T19:14:24.953Z,27.15
2022-07-30T19:16:54.476Z,26.98
2022-07-30T19:19:27.539Z,26.88
2022-07-30T19:21:55.527Z,26.86
2022-07-30T19:24:23.846Z,26.81
2022-07-30T19:26:56.130Z,26.70
2022-07-30T19:29:24.151Z,26.76
2022-07-30T19:31:52.165Z,26.78
2022-07-30T19:34:21.519Z,26.66
2022-07-30T19:36:49.468Z,26.52
2022-07-30T19:39:21.590Z,26.37
2022-07-30T19:41:50.770Z,26.35
2022-07-30T19:44:19.671Z,26.41
2022-07-30T19:46:48.690Z,26.42
2022-07-30T19:49:19.890Z,26.32
2022-07-30T19:52:10.477Z,26.23
2022-07-30T19:54:39.530Z,26.20
2022-07-30T19:57:07.567Z,26.10
2022-07-30T19:59:45.229Z,26.06
2022-07-30T20:02:23.618Z,26.09
2022-07-30T20:04:51.703Z,26.07
2022-07-30T20:07:21.116Z,26.03
2022-07-30T20:09:49.224Z,25.98
2022-07-30T20:12:17.567Z,25.90
2022-07-30T20:14:46.008Z,25.90
2022-07-30T20:17:14.505Z,25.74
2022-07-30T20:19:47.967Z,25.58
2022-07-30T20:22:17.362Z,25.51
2022-07-30T20:24:48.998Z,25.48
2022-07-30T20:27:35.343Z,25.49
2022-07-30T20:30:06.211Z,25.47
2022-07-30T20:32:35.341Z,25.37
2022-07-30T20:35:04.688Z,25.24
2022-07-30T20:37:33.247Z,25.22
2022-07-30T20:40:11.427Z,25.26
2022-07-30T20:42:42.676Z,25.24
2022-07-30T20:45:12.332Z,25.23
2022-07-30T20:47:41.339Z,25.06
2022-07-30T20:50:10.883Z,24.97
2022-07-30T20:52:40.520Z,24.78
2022-07-30T20:55:14.366Z,24.71
2022-07-30T20:58:00.320Z,24.69
2022-07-30T21:00:32.558Z,24.80
2022-07-30T21:03:03.390Z,24.69
2022-07-30T21:05:31.721Z,24.63
2022-07-30T21:08:00.809Z,24.55
2022-07-30T21:10:30.296Z,24.68
2022-07-30T21:13:03.718Z,24.53
2022-07-30T21:15:36.214Z,24.56
2022-07-30T21:18:13.983Z,24.54
2022-07-30T21:20:41.890Z,24.52
2022-07-30T21:23:20.785Z,24.41
2022-07-30T21:26:01.971Z,24.32
2022-07-30T21:28:35.124Z,24.23
2022-07-30T21:31:04.080Z,24.26
2022-07-30T21:33:35.848Z,24.40
2022-07-30T21:36:03.893Z,24.37
2022-07-30T21:38:34.496Z,24.40
2022-07-30T21:41:04.137Z,24.49
2022-07-30T21:43:39.056Z,24.35
2022-07-30T21:46:07.218Z,24.51
2022-07-30T21:48:39.662Z,24.51
2022-07-30T21:51:09.539Z,24.54
2022-07-30T21:53:45.135Z,24.61
2022-07-30T21:56:16.751Z,24.62
2022-07-30T21:58:45.478Z,24.63
2022-07-30T22:01:21.700Z,24.66
2022-07-30T22:04:01.653Z,24.70
2022-07-30T22:06:35.302Z,24.70
2022-07-30T22:09:08.555Z,24.71
2022-07-30T22:11:52.964Z,24.67
2022-07-30T22:14:20.979Z,24.68
2022-07-30T22:16:49.000Z,24.66
2022-07-30T22:19:17.314Z,24.65
2022-07-30T22:21:46.705Z,24.63
2022-07-30T22:24:33.627Z,24.58
2022-07-30T22:27:10.713Z,24.57
2022-07-30T22:29:51.121Z,24.46
2022-07-30T22:32:23.964Z,24.47
2022-07-30T22:34:52.033Z,24.46
2022-07-30T22:37:21.522Z,24.43
2022-07-30T22:39:50.164Z,24.40
2022-07-30T22:42:24.583Z,24.42
2022-07-30T22:44:55.510Z,24.39
2022-07-30T22:47:51.259Z,24.33
2022-07-30T22:50:15.026Z,24.33
2022-07-30T22:52:53.518Z,24.28
2022-07-30T22:55:28.301Z,24.32
2022-07-30T22:57:59.105Z,24.35
2022-07-30T23:00:28.584Z,24.36
2022-07-30T23:02:57.756Z,24.30
2022-07-30T23:05:26.251Z,24.20
2022-07-30T23:07:54.400Z,24.25
2022-07-30T23:10:24.916Z,24.29
2022-07-30T23:12:56.342Z,24.14
2022-07-30T23:15:25.967Z,24.02
2022-07-30T23:17:54.238Z,23.88
2022-07-30T23:20:22.834Z,23.76
2022-07-30T23:22:51.184Z,23.72
2022-07-30T23:25:19.698Z,23.66
2022-07-30T23:27:48.021Z,23.56
2022-07-30T23:30:16.174Z,23.54
2022-07-30T23:32:45.702Z,23.52
2022-07-30T23:35:13.637Z,23.54
2022-07-30T23:37:48.997Z,23.53
2022-07-30T23:40:18.442Z,23.51
2022-07-30T23:42:46.727Z,23.40
2022-07-30T23:45:14.907Z,23.33
2022-07-30T23:47:55.961Z,23.30
2022-07-30T23:50:32.763Z,23.28
2022-07-30T23:53:01.402Z,23.18
2022-07-30T23:55:29.872Z,23.06
2022-07-30T23:57:58.133Z,23.06
